Leesburg International Airport
KLEE : now visible

Airfield :











YOU CAN JOIN US ON...

 
LOGIN :

Register | Disclaimer

   EN    FR    IT 

 









Legend :    VFR   Marginal VFR   IFR   Intensive IFR   Very Intensive IFR
Visi :
Ceiling :
>= 8 km
>= 3000ft
5 to 8 km
1000 to 3000 ft
1500m to 5 km
500 to 1000 ft
800 to 1500m
200 to 500 ft
< 800m
< 200 ft
Symbols :   Thunderstorms  Fog  Heavy snow  Heavy precipitations  Wind > 20 kt






- Airport Elevation : 76 ft


KLEE - Leesburg International

CURRENT METAR :
  • 101853Z 21011KT 10SM SCT065 BKN075 30/17 A2985 RMK AO2 SLP107 T03000167

EXPIRED METARs :
  • 101753Z 22009KT 10SM SCT050 30/17 A2989 RMK AO2 SLP119 T03000167 10306 20206 58017
  • 101653Z 20006KT 10SM CLR 29/17 A2991 RMK AO2 SLP127 T02890167

TAF KLEE
Valid from the 10 at 18:00 until the 11 at 18:00 UTC


101746Z 1018/1118 20011G17KT P6SM SCT050 SCT250
FM102100 27014G20KT P6SM VCSH SCT040 BKN070
TEMPO 1021/1101 3SM SHRA SCT025 BKN035
FM110300 19008KT P6SM SCT015 BKN120
FM111200 21011KT P6SM VCTS SCT015CB BKN025 OVC080
TEMPO 1113/1116 3SM TSRA BKN015CB
KZJX FIR / North America



MET'MAP, your aeronautical weather chart ! - Copyright ORBIFLY December 2007 - Disclaimer

ORBIFLY MET'MAP TEAM :

Programming & Development : Alexandra Zaïnal
Concept & original design : Baudouin d'Aumeries
Assistance for programming : Marc-Olivier Méhu
Technical & hardware support : Manuel Goepfert

Contact : metmap@orbifly.com




SOURCES & CREDITS :

   NOAA       Earth
Advisory